createdAt,value
2019-02-19T00:03:16.347Z,101078.91
2019-02-19T00:08:20.389Z,101074.16
2019-02-19T00:13:24.577Z,101069.52
2019-02-19T00:18:28.660Z,101058.86
2019-02-19T00:23:39.983Z,101061.22
2019-02-19T00:28:44.098Z,101062.34
2019-02-19T00:33:48.223Z,101053.59
2019-02-19T00:38:52.297Z,101053.21
2019-02-19T00:44:07.671Z,101052.78
2019-02-19T00:49:13.570Z,101044.98
2019-02-19T00:54:23.571Z,101044.86
2019-02-19T00:59:27.641Z,101039.80
2019-02-19T01:20:24.077Z,101025.92
2019-02-19T01:25:28.121Z,101020.55
2019-02-19T01:30:32.204Z,101025.84
2019-02-19T01:35:36.323Z,101015.25
2019-02-19T01:40:40.491Z,101010.03
2019-02-19T01:45:44.592Z,101010.48
2019-02-19T01:51:07.843Z,101000.30
2019-02-19T01:56:12.251Z,100999.80
2019-02-19T02:01:16.324Z,100997.83
2019-02-19T02:06:20.493Z,100999.41
2019-02-19T02:11:24.583Z,100995.36
2019-02-19T02:16:28.725Z,100984.80
2019-02-19T02:21:38.639Z,100981.98
2019-02-19T02:26:42.785Z,100984.61
2019-02-19T02:31:47.691Z,100979.63
2019-02-19T02:36:52.179Z,100979.55
2019-02-19T02:42:01.896Z,100980.36
2019-02-19T02:47:06.320Z,100973.84
2019-02-19T02:52:10.413Z,100970.62
2019-02-19T02:57:14.466Z,100970.46
2019-02-19T03:02:18.521Z,100965.54
2019-02-19T03:07:23.071Z,100967.42
2019-02-19T03:12:27.841Z,100960.17
2019-02-19T03:17:32.376Z,100966.90
2019-02-19T03:27:54.862Z,100964.80
2019-02-19T03:32:59.028Z,100961.80
2019-02-19T03:38:03.077Z,100964.23
2019-02-19T03:43:07.139Z,100965.67
2019-02-19T03:48:11.255Z,100963.55
2019-02-19T03:53:15.425Z,100960.60
2019-02-19T03:58:19.815Z,100967.83
2019-02-19T04:03:24.141Z,100966.79
2019-02-19T04:08:28.245Z,100963.90
2019-02-19T04:13:32.317Z,100965.45
2019-02-19T04:18:36.397Z,100967.81
2019-02-19T04:23:40.504Z,100964.73
2019-02-19T04:28:44.576Z,100960.39
2019-02-19T04:33:48.998Z,100959.17
2019-02-19T04:38:58.710Z,100964.34
2019-02-19T04:44:02.794Z,100956.39
2019-02-19T04:49:06.871Z,100959.39
2019-02-19T04:54:17.418Z,100955.91
2019-02-19T04:59:21.552Z,100957.97
2019-02-19T05:04:25.649Z,100958.83
2019-02-19T05:09:29.771Z,100965.48
2019-02-19T05:14:33.793Z,100964.00
2019-02-19T05:19:37.897Z,100964.94
2019-02-19T05:24:42.124Z,100966.42
2019-02-19T05:29:46.181Z,100967.62
2019-02-19T05:34:50.224Z,100963.86
2019-02-19T05:39:54.384Z,100956.50
2019-02-19T05:44:58.466Z,100960.92
2019-02-19T05:50:03.010Z,100956.38
2019-02-19T05:55:07.193Z,100967.93
2019-02-19T06:05:47.870Z,100973.83
2019-02-19T06:10:51.961Z,100978.00
2019-02-19T06:15:56.349Z,100988.87
2019-02-19T06:21:06.411Z,100988.05
2019-02-19T06:26:10.486Z,100983.56
2019-02-19T06:31:20.348Z,100985.64
2019-02-19T06:36:24.768Z,100988.88
2019-02-19T06:41:29.092Z,100998.09
2019-02-19T06:46:33.213Z,101008.27
2019-02-19T06:51:41.047Z,101004.89
2019-02-19T06:56:45.139Z,101010.72
2019-02-19T07:01:49.496Z,101022.98
2019-02-19T07:12:10.938Z,101021.83
2019-02-19T07:17:15.979Z,101020.91
2019-02-19T07:22:26.585Z,101022.96
2019-02-19T07:27:30.644Z,101010.73
2019-02-19T07:38:10.752Z,101024.66
2019-02-19T07:43:14.851Z,101024.50
2019-02-19T07:48:18.927Z,101033.49
2019-02-19T07:53:22.961Z,101036.66
2019-02-19T07:58:27.004Z,101043.97
2019-02-19T08:03:31.218Z,101038.62
2019-02-19T08:08:35.324Z,101040.88
2019-02-19T08:13:39.358Z,101045.83
2019-02-19T08:18:43.390Z,101040.41
2019-02-19T08:23:47.429Z,101050.02
2019-02-19T08:28:51.493Z,101047.94
2019-02-19T08:33:55.520Z,101048.10
2019-02-19T08:38:59.523Z,101057.58
2019-02-19T08:44:03.645Z,101056.00
2019-02-19T08:49:07.721Z,101071.34
2019-02-19T08:54:11.746Z,101074.50
2019-02-19T08:59:15.821Z,101081.05
2019-02-19T09:04:19.938Z,101084.80
2019-02-19T09:09:24.000Z,101085.77
2019-02-19T09:14:47.036Z,101081.56
2019-02-19T09:19:51.169Z,101082.72
2019-02-19T09:24:57.702Z,101092.68
2019-02-19T09:30:01.747Z,101092.68
2019-02-19T09:41:00.964Z,101096.17
2019-02-19T09:46:05.010Z,101096.17
2019-02-19T09:51:09.110Z,101103.12
2019-02-19T09:56:13.198Z,101101.84
2019-02-19T10:01:17.258Z,101098.56
2019-02-19T10:06:21.316Z,101109.17
2019-02-19T10:11:27.073Z,101117.77
2019-02-19T10:16:31.172Z,101124.03
2019-02-19T10:26:55.719Z,101126.16
2019-02-19T10:32:01.473Z,101135.08
2019-02-19T10:37:07.304Z,101141.36
2019-02-19T10:42:11.381Z,101139.20
2019-02-19T10:47:15.452Z,101142.02
2019-02-19T10:52:19.537Z,101154.62
2019-02-19T10:57:23.574Z,101143.14
2019-02-19T11:02:27.967Z,101148.42
2019-02-19T11:07:32.089Z,101150.14
2019-02-19T11:12:36.179Z,101146.90
2019-02-19T11:17:40.578Z,101146.99
2019-02-19T11:22:45.106Z,101141.95
2019-02-19T11:27:49.342Z,101145.83
2019-02-19T11:32:53.502Z,101130.50
2019-02-19T11:37:57.575Z,101142.67
2019-02-19T11:43:01.773Z,101129.94
2019-02-19T11:48:06.519Z,101129.09
2019-02-19T11:53:10.682Z,101132.03
2019-02-19T11:58:15.174Z,101135.55
2019-02-19T12:03:19.232Z,101142.04
2019-02-19T12:08:23.247Z,101137.29
2019-02-19T12:13:27.305Z,101129.55
2019-02-19T12:18:31.711Z,101127.03
2019-02-19T12:23:35.823Z,101119.22
2019-02-19T12:28:47.692Z,101121.23
2019-02-19T12:33:52.058Z,101108.56
2019-02-19T12:38:56.144Z,101104.41
2019-02-19T12:49:37.267Z,101099.89
2019-02-19T12:55:00.363Z,101095.67
2019-02-19T13:05:59.775Z,101104.12
2019-02-19T13:16:40.222Z,101109.20
2019-02-19T13:21:44.256Z,101096.71
2019-02-19T13:26:48.774Z,101107.78
2019-02-19T13:31:53.360Z,101107.28
2019-02-19T13:36:57.949Z,101117.72
2019-02-19T13:42:02.063Z,101116.03
2019-02-19T13:47:06.254Z,101113.70
2019-02-19T13:52:10.388Z,101122.44
2019-02-19T13:57:15.629Z,101130.02
2019-02-19T14:02:19.974Z,101135.24
2019-02-19T14:07:24.162Z,101131.61
2019-02-19T14:12:28.191Z,101130.36
2019-02-19T14:17:32.529Z,101141.63
2019-02-19T14:22:38.762Z,101131.85
2019-02-19T14:27:43.115Z,101121.74
2019-02-19T14:32:47.432Z,101118.95
2019-02-19T14:37:51.490Z,101133.09
2019-02-19T14:42:55.606Z,101121.19
2019-02-19T14:47:59.921Z,101119.66
2019-02-19T14:53:04.034Z,101111.45
2019-02-19T14:58:08.119Z,101121.46
2019-02-19T15:03:12.293Z,101127.49
2019-02-19T15:08:16.555Z,101128.65
2019-02-19T15:13:21.753Z,101131.53
2019-02-19T15:18:25.848Z,101133.45
2019-02-19T15:23:31.482Z,101132.63
2019-02-19T15:28:35.610Z,101137.94
2019-02-19T15:33:39.730Z,101142.93
2019-02-19T15:38:43.923Z,101132.62
2019-02-19T15:43:48.021Z,101138.25
2019-02-19T15:48:52.194Z,101144.52
2019-02-19T15:53:56.682Z,101146.36
2019-02-19T15:59:01.926Z,101136.45
2019-02-19T16:04:06.016Z,101140.31
2019-02-19T16:09:10.116Z,101146.89
2019-02-19T16:14:16.612Z,101136.72
2019-02-19T16:19:20.130Z,101136.72
2019-02-19T16:24:24.254Z,101134.41
2019-02-19T16:29:28.389Z,101127.25
2019-02-19T16:34:32.605Z,101135.19
2019-02-19T16:39:36.669Z,101145.42
2019-02-19T16:44:40.798Z,101152.54
2019-02-19T16:49:44.971Z,101147.77
2019-02-19T16:54:49.065Z,101137.24
2019-02-19T16:59:53.181Z,101139.23
2019-02-19T17:04:57.246Z,101141.55
2019-02-19T17:10:01.461Z,101141.55
2019-02-19T17:15:06.348Z,101147.65
2019-02-19T17:20:26.482Z,101144.67
2019-02-19T17:25:16.781Z,101148.38
2019-02-19T17:30:22.283Z,101163.85
2019-02-19T17:35:26.730Z,101168.20
2019-02-19T17:40:31.062Z,101165.80
2019-02-19T17:45:35.478Z,101174.34
2019-02-19T17:50:39.708Z,101176.17
2019-02-19T17:55:44.046Z,101182.14
2019-02-19T18:00:48.504Z,101181.01
2019-02-19T18:05:52.769Z,101175.27
2019-02-19T18:10:57.275Z,101178.78
2019-02-19T18:16:01.521Z,101186.48
2019-02-19T18:21:05.752Z,101172.16
2019-02-19T18:26:09.892Z,101172.16
2019-02-19T18:31:14.242Z,101186.14
2019-02-19T18:36:19.616Z,101188.41
2019-02-19T18:41:24.370Z,101185.82
2019-02-19T18:46:28.529Z,101182.98
2019-02-19T18:51:33.048Z,101180.40
2019-02-19T18:56:37.248Z,101186.04
2019-02-19T19:01:41.424Z,101193.81
2019-02-19T19:06:45.525Z,101192.39
2019-02-19T19:11:49.728Z,101192.04
2019-02-19T19:16:53.779Z,101190.41
2019-02-19T19:21:57.865Z,101187.07
2019-02-19T19:27:01.917Z,101191.73
2019-02-19T19:32:06.021Z,101208.05
2019-02-19T19:42:25.961Z,101206.16
2019-02-19T19:47:30.209Z,101236.45
2019-02-19T19:52:58.423Z,101269.73
2019-02-19T20:09:34.839Z,101323.14
2019-02-19T20:20:40.352Z,101308.09
2019-02-19T20:37:10.611Z,101277.52
2019-02-19T20:48:13.087Z,101286.72
2019-02-19T20:58:38.756Z,101294.22
2019-02-19T21:03:44.943Z,101295.43
2019-02-19T21:14:18.407Z,101324.34
2019-02-19T21:19:22.670Z,101323.91
2019-02-19T21:30:01.311Z,101308.76
2019-02-19T21:35:26.014Z,101308.41
2019-02-19T21:40:31.826Z,101324.27
2019-02-19T21:45:37.593Z,101317.51
2019-02-19T21:50:43.386Z,101317.28
2019-02-19T21:55:47.425Z,101322.09
2019-02-19T22:00:53.265Z,101330.28
2019-02-19T22:05:59.090Z,101336.20
2019-02-19T22:11:04.824Z,101328.50
2019-02-19T22:16:27.890Z,101328.00
2019-02-19T22:21:31.975Z,101332.42
2019-02-19T22:31:51.440Z,101336.73
2019-02-19T22:36:55.469Z,101336.52
2019-02-19T22:41:59.510Z,101343.21
2019-02-19T22:47:03.603Z,101341.45
2019-02-19T22:52:12.521Z,101345.82
2019-02-19T22:57:19.447Z,101346.67
2019-02-19T23:02:23.793Z,101348.84
2019-02-19T23:07:28.203Z,101348.40
2019-02-19T23:12:32.306Z,101350.34
2019-02-19T23:17:36.437Z,101352.62
2019-02-19T23:22:40.527Z,101350.69
2019-02-19T23:27:45.012Z,101356.74
2019-02-19T23:32:49.444Z,101361.43
2019-02-19T23:38:14.194Z,101365.42
2019-02-19T23:48:33.858Z,101364.58
2019-02-19T23:53:56.966Z,101368.80
2019-02-19T23:59:20.227Z,101362.37
